Time;durP1;ratioP1;P1;durP2;ratioP2;P2;SDS_P1;SDS_P2;PMS_P1;PMS_P2;Temp;Humidity;BMP_temperature;BMP_pressure;BME280_temperature;BME280_humidity;BME280_pressure;Samples;Min_cycle;Max_cycle;Signal;HPM_P1;HPM_P2
2022/12/13 00:00:02;;;;;;;0.60;0.60;;;;;;;-6.34;79.02;100215.50;5085583;28;20073;-66
2022/12/13 00:02:28;;;;;;;0.70;0.70;;;;;;;-6.29;79.03;100219.16;5085268;28;20020;-67
2022/12/13 00:04:53;;;;;;;0.75;0.75;;;;;;;-6.26;79.05;100221.84;5085161;28;20531;-66
2022/12/13 00:07:18;;;;;;;0.70;0.70;;;;;;;-6.22;79.08;100218.75;5084929;28;20032;-67
2022/12/13 00:09:44;;;;;;;0.68;0.68;;;;;;;-6.16;79.11;100214.78;5085298;28;20031;-66
2022/12/13 00:12:09;;;;;;;0.80;0.80;;;;;;;-6.16;79.09;100218.19;5085183;28;20035;-65
2022/12/13 00:14:35;;;;;;;0.60;0.60;;;;;;;-6.17;78.94;100211.41;5085236;28;20029;-65
2022/12/13 00:17:00;;;;;;;0.70;0.70;;;;;;;-6.12;79.12;100216.72;5084971;28;20048;-65
2022/12/13 00:19:25;;;;;;;0.73;0.73;;;;;;;-6.12;78.87;100217.56;5085169;28;20483;-66
2022/12/13 00:21:51;;;;;;;0.70;0.70;;;;;;;-6.13;78.82;100218.38;5084906;28;20523;-65
2022/12/13 00:24:16;;;;;;;0.70;0.70;;;;;;;-6.10;78.95;100220.19;5085231;28;20077;-66
2022/12/13 00:26:42;;;;;;;0.65;0.65;;;;;;;-6.08;79.13;100223.69;5084498;28;20098;-66
2022/12/13 00:29:07;;;;;;;0.70;0.70;;;;;;;-6.04;79.11;100217.16;5085093;28;20024;-66
2022/12/13 00:31:33;;;;;;;0.70;0.70;;;;;;;-6.01;78.87;100214.75;5085027;28;20029;-66
2022/12/13 00:33:59;;;;;;;0.70;0.70;;;;;;;-6.03;78.75;100204.56;5083821;28;20051;-66
2022/12/13 00:36:25;;;;;;;0.70;0.70;;;;;;;-6.05;78.60;100207.84;5084140;28;20025;-66
2022/12/13 00:38:59;;;;;;;0.70;0.70;;;;;;;-6.17;78.72;100177.69;5083727;28;20391;-66
2022/12/13 00:41:27;;;;;;;0.70;0.70;;;;;;;-6.07;78.74;100195.09;5083681;28;20020;-67
2022/12/13 00:43:53;;;;;;;0.70;0.70;;;;;;;-6.05;78.81;100188.47;5083782;28;20024;-65
2022/12/13 00:46:22;;;;;;;0.65;0.65;;;;;;;-5.99;78.68;100192.97;5084553;28;20020;-66
2022/12/13 00:48:53;;;;;;;0.80;0.80;;;;;;;-5.98;78.65;100198.13;5083800;28;20025;-66
2022/12/13 00:51:20;;;;;;;0.70;0.70;;;;;;;-5.97;78.64;100197.31;5085147;28;20020;-66
2022/12/13 00:53:46;;;;;;;0.70;0.70;;;;;;;-5.98;78.83;100188.00;5084938;28;20025;-66
2022/12/13 00:56:14;;;;;;;0.75;0.75;;;;;;;-5.93;78.71;100190.78;5084873;28;20021;-66
2022/12/13 00:58:40;;;;;;;0.80;0.80;;;;;;;-5.94;78.53;100193.22;5084814;28;20482;-66
2022/12/13 01:01:11;;;;;;;0.70;0.70;;;;;;;-5.99;78.66;100183.72;5084981;28;20121;-66
2022/12/13 01:03:37;;;;;;;0.80;0.80;;;;;;;-5.94;78.82;100185.66;5084717;28;20025;-67
2022/12/13 01:06:21;;;;;;;0.63;0.63;;;;;;;-5.92;78.63;100184.94;5084633;28;20032;-66
2022/12/13 01:08:47;;;;;;;0.60;0.60;;;;;;;-5.91;78.51;100181.59;5084849;28;20028;-66
2022/12/13 01:11:13;;;;;;;0.70;0.70;;;;;;;-5.89;78.42;100189.28;5084577;28;20113;-66
2022/12/13 01:13:39;;;;;;;0.70;0.70;;;;;;;-5.92;78.66;100182.41;5084787;28;20043;-66
2022/12/13 01:16:07;;;;;;;0.70;0.70;;;;;;;-5.90;78.59;100174.91;5084589;28;20032;-66
2022/12/13 01:18:34;;;;;;;1.40;1.40;;;;;;;-5.88;78.25;100164.06;5083228;28;20051;-66
2022/12/13 01:21:01;;;;;;;0.70;0.70;;;;;;;-5.86;78.57;100181.84;5084408;28;20055;-65
2022/12/13 01:23:27;;;;;;;0.70;0.70;;;;;;;-5.88;78.64;100179.25;5084320;28;20020;-66
2022/12/13 01:25:53;;;;;;;0.75;0.75;;;;;;;-5.87;78.59;100170.00;5083264;28;20032;-66
2022/12/13 01:28:18;;;;;;;0.70;0.70;;;;;;;-5.86;78.43;100156.56;5084590;28;20068;-66
2022/12/13 01:30:44;;;;;;;0.70;0.70;;;;;;;-5.89;78.34;100162.34;5084499;28;20025;-66
2022/12/13 01:33:09;;;;;;;0.70;0.70;;;;;;;-5.89;78.51;100169.94;5082968;28;20029;-66
2022/12/13 01:35:35;;;;;;;0.70;0.70;;;;;;;-5.89;78.36;100162.34;5083254;28;20021;-66
2022/12/13 01:38:00;;;;;;;0.70;0.70;;;;;;;-5.91;78.22;100146.22;5087333;28;20024;-66
2022/12/13 01:40:26;;;;;;;0.70;0.70;;;;;;;-5.86;78.46;100151.50;5088099;28;20039;-66
2022/12/13 01:42:51;;;;;;;0.70;0.70;;;;;;;-5.82;78.36;100161.03;5087959;28;20116;-66
2022/12/13 01:45:26;;;;;;;0.77;0.77;;;;;;;-5.86;78.30;100159.97;5086625;28;20078;-67
2022/12/13 01:47:58;;;;;;;0.70;0.70;;;;;;;-5.78;78.06;100152.81;5087661;28;20020;-66
2022/12/13 01:50:31;;;;;;;0.70;0.70;;;;;;;-5.75;78.23;100154.66;5088060;28;20490;-67
2022/12/13 01:52:59;;;;;;;0.60;0.60;;;;;;;-5.78;78.26;100149.44;5087857;28;20097;-66
2022/12/13 01:55:29;;;;;;;0.70;0.70;;;;;;;-5.78;78.06;100149.44;5088123;28;20055;-66
2022/12/13 01:57:56;;;;;;;0.70;0.70;;;;;;;-5.85;77.97;100141.47;5087743;28;20028;-67
2022/12/13 02:00:24;;;;;;;0.70;0.70;;;;;;;-5.88;77.98;100140.47;5088087;28;20146;-66
2022/12/13 02:02:50;;;;;;;0.70;0.70;;;;;;;-5.86;77.93;100147.34;5087705;28;20506;-67
2022/12/13 02:05:18;;;;;;;0.70;0.70;;;;;;;-5.85;77.98;100148.22;5087596;28;20029;-66
2022/12/13 02:07:45;;;;;;;0.70;0.70;;;;;;;-5.89;77.90;100143.75;5087665;28;20032;-66
2022/12/13 02:10:10;;;;;;;0.60;0.60;;;;;;;-5.91;77.61;100135.25;5087779;28;20021;-66
2022/12/13 02:12:38;;;;;;;0.70;0.70;;;;;;;-5.98;77.76;100134.03;5087874;28;20019;-67
2022/12/13 02:15:11;;;;;;;1.00;1.00;;;;;;;-6.05;77.70;100132.84;5087673;28;20078;-68
2022/12/13 02:17:39;;;;;;;0.70;0.70;;;;;;;-6.06;77.75;100128.59;5086239;28;20029;-66
2022/12/13 02:20:30;;;;;;;0.70;0.70;;;;;;;-6.13;77.60;100132.44;5086400;28;20021;-66
2022/12/13 02:22:55;;;;;;;0.75;0.75;;;;;;;-6.13;77.78;100127.38;5086959;28;20040;-66
2022/12/13 02:25:36;;;;;;;0.60;0.60;;;;;;;-6.21;77.58;100126.09;5087508;28;20033;-67
2022/12/13 02:28:20;;;;;;;0.70;0.70;;;;;;;-6.26;77.50;100132.56;5086973;28;20024;-67
2022/12/13 02:30:51;;;;;;;0.70;0.70;;;;;;;-6.20;77.42;100132.03;5087573;28;20031;-66
2022/12/13 02:33:38;;;;;;;0.80;0.80;;;;;;;-6.24;77.48;100141.09;5087226;28;20017;-67
2022/12/13 02:36:15;;;;;;;0.70;0.70;;;;;;;-6.27;77.51;100135.88;5087046;28;20048;-66
2022/12/13 02:39:13;;;;;;;3.45;3.35;;;;;;;-6.33;77.27;100131.34;5087057;28;20398;-66
2022/12/13 02:41:49;;;;;;;0.60;0.60;;;;;;;-6.34;77.34;100139.69;5085779;28;20024;-66
2022/12/13 02:44:29;;;;;;;0.70;0.70;;;;;;;-6.35;77.29;100130.38;5086836;28;20029;-66
2022/12/13 02:47:07;;;;;;;0.70;0.70;;;;;;;-6.38;77.40;100131.09;5086707;28;20028;-66
2022/12/13 02:49:36;;;;;;;0.75;0.75;;;;;;;-6.41;77.24;100133.47;5086375;28;20021;-66
2022/12/13 02:52:04;;;;;;;0.80;0.80;;;;;;;-6.43;77.30;100131.59;5086643;28;20076;-66
2022/12/13 02:54:30;;;;;;;0.70;0.70;;;;;;;-6.54;77.44;100115.84;5086842;28;20023;-66
2022/12/13 02:56:57;;;;;;;0.70;0.70;;;;;;;-6.53;77.60;100130.25;5086619;28;20054;-65
2022/12/13 02:59:33;;;;;;;0.63;0.63;;;;;;;-6.57;77.57;100121.63;5086720;28;20465;-66
2022/12/13 03:02:16;;;;;;;0.70;0.70;;;;;;;-6.56;77.65;100115.78;5086739;28;20042;-66
2022/12/13 03:08:27;;;;;;;0.90;0.90;;;;;;;-6.65;77.54;100115.25;5086529;28;20510;-66
2022/12/13 03:10:56;;;;;;;0.70;0.70;;;;;;;-6.68;77.44;100117.63;5086389;28;20484;-66
2022/12/13 03:13:37;;;;;;;0.70;0.70;;;;;;;-6.72;77.34;100114.91;5086232;28;20031;-66
2022/12/13 03:16:23;;;;;;;0.80;0.80;;;;;;;-6.75;77.41;100107.16;5086321;28;20075;-66
2022/12/13 03:18:50;;;;;;;0.70;0.70;;;;;;;-6.83;77.34;100110.91;5086186;28;20071;-66
2022/12/13 03:21:16;;;;;;;0.80;0.80;;;;;;;-6.81;77.33;100116.91;5084792;28;20045;-66
2022/12/13 03:23:41;;;;;;;0.70;0.70;;;;;;;-6.88;77.43;100102.19;5086000;28;20460;-65
2022/12/13 03:26:11;;;;;;;0.80;0.80;;;;;;;-6.86;77.49;100098.09;5086117;28;20284;-66
2022/12/13 03:28:37;;;;;;;0.70;0.70;;;;;;;-6.92;77.49;100097.75;5083494;28;20087;-66
2022/12/13 03:31:04;;;;;;;0.70;0.70;;;;;;;-6.95;77.34;100098.47;5084844;28;20028;-66
2022/12/13 03:33:29;;;;;;;0.75;0.75;;;;;;;-6.95;77.42;100102.63;5085853;28;20048;-66
2022/12/13 03:35:55;;;;;;;0.70;0.70;;;;;;;-6.97;77.45;100102.53;5085771;28;20024;-65
2022/12/13 03:38:21;;;;;;;0.70;0.70;;;;;;;-7.00;77.55;100095.69;5085855;28;20423;-65
2022/12/13 03:40:46;;;;;;;0.70;0.70;;;;;;;-6.99;77.64;100091.47;5085650;28;20021;-67
2022/12/13 03:43:12;;;;;;;0.70;0.70;;;;;;;-7.02;77.60;100093.81;5085570;28;20082;-66
2022/12/13 03:45:37;;;;;;;0.70;0.70;;;;;;;-7.03;77.71;100084.53;5085943;28;20495;-65
2022/12/13 03:48:03;;;;;;;0.70;0.70;;;;;;;-7.08;77.45;100086.78;5085429;28;20384;-66
2022/12/13 03:50:28;;;;;;;0.70;0.70;;;;;;;-7.11;77.71;100089.13;5085717;28;20021;-66
2022/12/13 03:52:58;;;;;;;0.70;0.70;;;;;;;-7.14;77.62;100086.44;5085710;28;20048;-66
2022/12/13 03:55:24;;;;;;;0.70;0.70;;;;;;;-7.15;77.60;100090.59;5085751;28;20480;-66
2022/12/13 03:57:50;;;;;;;0.70;0.70;;;;;;;-7.18;77.67;100087.91;5085509;28;20475;-66
2022/12/13 04:00:15;;;;;;;0.70;0.70;;;;;;;-7.20;77.72;100079.34;5084843;28;20028;-66
2022/12/13 04:02:40;;;;;;;0.70;0.70;;;;;;;-7.20;77.82;100081.88;5085313;28;20392;-66
2022/12/13 04:05:06;;;;;;;0.73;0.73;;;;;;;-7.22;77.61;100086.84;5085814;28;20021;-66
2022/12/13 04:07:32;;;;;;;0.80;0.80;;;;;;;-7.27;77.80;100080.69;5085450;28;20507;-65
2022/12/13 04:09:57;;;;;;;0.70;0.70;;;;;;;-7.27;77.87;100085.72;5085431;28;20020;-66
2022/12/13 04:15:07;;;;;;;0.70;0.70;;;;;;;-7.36;77.89;100075.06;5085586;28;20038;-66
2022/12/13 04:17:32;;;;;;;0.60;0.60;;;;;;;-7.42;77.82;100074.72;5085177;28;20048;-66
2022/12/13 04:19:58;;;;;;;0.63;0.63;;;;;;;-7.43;77.98;100072.97;5083754;28;20046;-66
2022/12/13 04:22:23;;;;;;;0.75;0.75;;;;;;;-7.48;77.99;100068.56;5083551;28;20063;-66
2022/12/13 04:24:49;;;;;;;0.70;0.70;;;;;;;-7.53;78.15;100051.38;5085395;28;20036;-66
2022/12/13 04:27:14;;;;;;;0.70;0.70;;;;;;;-7.54;78.02;100070.69;5085036;28;20368;-64
2022/12/13 04:29:40;;;;;;;0.70;0.70;;;;;;;-7.56;78.00;100071.38;5083818;28;20021;-67
2022/12/13 04:32:05;;;;;;;0.60;0.60;;;;;;;-7.59;78.06;100059.47;5085094;28;20035;-67
2022/12/13 04:34:31;;;;;;;0.70;0.70;;;;;;;-7.68;77.94;100053.88;5085286;28;20028;-65
2022/12/13 04:36:56;;;;;;;0.80;0.80;;;;;;;-7.67;77.98;100058.13;5085086;28;20052;-67
2022/12/13 04:39:21;;;;;;;0.70;0.70;;;;;;;-7.69;78.02;100053.00;5085159;28;20024;-66
2022/12/13 04:41:51;;;;;;;0.70;0.70;;;;;;;-7.72;78.06;100041.09;5083856;28;20093;-66
2022/12/13 04:44:17;;;;;;;0.70;0.70;;;;;;;-7.76;78.04;100045.84;5083394;28;20027;-66
2022/12/13 04:46:42;;;;;;;0.77;0.77;;;;;;;-7.78;77.92;100038.19;5084720;28;20028;-66
2022/12/13 04:49:07;;;;;;;0.70;0.70;;;;;;;-7.79;77.97;100033.06;5085079;28;20024;-66
2022/12/13 04:51:33;;;;;;;0.70;0.70;;;;;;;-7.84;77.71;100032.78;5084694;28;20047;-66
2022/12/13 04:53:58;;;;;;;0.70;0.70;;;;;;;-7.85;77.78;100039.50;5084783;28;20534;-66
2022/12/13 04:56:24;;;;;;;0.80;0.80;;;;;;;-7.88;77.87;100043.47;5084730;28;20024;-66
2022/12/13 04:58:49;;;;;;;0.70;0.70;;;;;;;-7.93;77.65;100037.28;5084711;28;20030;-66
2022/12/13 05:01:15;;;;;;;0.70;0.70;;;;;;;-7.96;77.67;100033.81;5084921;28;20032;-66
2022/12/13 05:03:41;;;;;;;0.70;0.70;;;;;;;-7.97;77.69;100038.75;5084636;28;20024;-67
2022/12/13 05:06:12;;;;;;;0.70;0.70;;;;;;;-8.01;77.72;100037.69;5084725;28;20032;-66
2022/12/13 05:08:38;;;;;;;0.90;0.90;;;;;;;-8.07;77.67;100024.72;5084625;28;20076;-67
2022/12/13 05:11:04;;;;;;;0.70;0.70;;;;;;;-8.04;77.81;100035.00;5084759;28;20040;-67
2022/12/13 05:13:30;;;;;;;0.60;0.60;;;;;;;-8.06;77.68;100035.66;5088623;28;20096;-66
2022/12/13 05:15:57;;;;;;;0.70;0.70;;;;;;;-8.10;77.58;100030.44;5087427;28;20233;-66
2022/12/13 05:18:23;;;;;;;0.80;0.80;;;;;;;-8.12;77.72;100029.50;5088396;28;20031;-67
2022/12/13 05:20:49;;;;;;;0.70;0.70;;;;;;;-8.12;77.65;100036.16;5088475;28;20036;-66
2022/12/13 05:23:16;;;;;;;0.73;0.73;;;;;;;-8.19;77.70;100026.50;5087093;28;20092;-66
2022/12/13 05:25:42;;;;;;;0.70;0.70;;;;;;;-8.17;77.78;100027.44;5088315;28;20058;-66
2022/12/13 05:28:07;;;;;;;0.70;0.70;;;;;;;-8.20;77.75;100025.63;5088276;28;20026;-66
2022/12/13 05:30:32;;;;;;;0.70;0.70;;;;;;;-8.25;77.65;100020.31;5088240;28;20032;-65
2022/12/13 05:32:58;;;;;;;0.73;0.73;;;;;;;-8.29;77.80;100025.91;5088164;28;20051;-66
2022/12/13 05:35:24;;;;;;;0.80;0.80;;;;;;;-8.27;77.65;100015.94;5088019;28;20076;-66
2022/12/13 05:37:53;;;;;;;0.73;0.73;;;;;;;-8.26;77.80;100018.53;5087953;28;20035;-66
2022/12/13 05:40:18;;;;;;;0.70;0.70;;;;;;;-8.44;77.78;99995.66;5088405;28;20025;-66
2022/12/13 05:42:43;;;;;;;0.60;0.60;;;;;;;-8.32;77.88;100020.69;5086684;28;20032;-67
2022/12/13 05:45:16;;;;;;;0.70;0.70;;;;;;;-8.36;77.81;100011.22;5088011;28;20028;-67
2022/12/13 05:47:42;;;;;;;0.80;0.80;;;;;;;-8.36;77.71;100012.09;5087881;28;20024;-67
2022/12/13 05:50:08;;;;;;;0.70;0.70;;;;;;;-8.36;77.84;100019.66;5088202;28;20059;-67
2022/12/13 05:52:33;;;;;;;0.70;0.70;;;;;;;-8.35;77.63;100021.38;5087746;28;20024;-67
2022/12/13 05:54:59;;;;;;;0.73;0.73;;;;;;;-8.37;77.71;100022.09;5088116;28;20032;-68
2022/12/13 05:57:24;;;;;;;0.70;0.70;;;;;;;-8.37;77.59;100006.97;5088014;28;20028;-67
2022/12/13 05:59:50;;;;;;;0.70;0.70;;;;;;;-8.41;77.53;100010.06;5086925;28;20448;-67
2022/12/13 06:02:16;;;;;;;0.80;0.80;;;;;;;-8.42;77.56;100014.25;5086409;28;20096;-67
2022/12/13 06:04:42;;;;;;;0.70;0.70;;;;;;;-8.41;77.58;100015.97;5086772;28;20071;-66
2022/12/13 06:07:07;;;;;;;0.70;0.70;;;;;;;-8.44;77.59;100009.88;5085501;28;20025;-66
2022/12/13 06:09:33;;;;;;;0.70;0.70;;;;;;;-8.41;77.57;100010.06;5088037;28;20029;-67
2022/12/13 06:11:58;;;;;;;0.63;0.63;;;;;;;-8.46;77.49;100008.13;5087837;28;20476;-67
2022/12/13 06:14:24;;;;;;;0.80;0.80;;;;;;;-8.47;77.54;100005.53;5087650;28;20513;-66
2022/12/13 06:16:51;;;;;;;0.70;0.70;;;;;;;-8.48;77.59;100001.28;5087289;28;20040;-67
2022/12/13 06:19:17;;;;;;;0.80;0.80;;;;;;;-8.51;77.58;99994.38;5087521;28;20052;-67
2022/12/13 06:21:42;;;;;;;0.70;0.70;;;;;;;-8.53;77.54;99993.41;5087177;28;20048;-66
2022/12/13 06:24:07;;;;;;;0.70;0.70;;;;;;;-8.53;77.58;99990.88;5086337;28;20039;-66
2022/12/13 06:26:33;;;;;;;0.70;0.70;;;;;;;-8.61;77.51;99982.91;5087295;28;20028;-67
2022/12/13 06:28:58;;;;;;;0.70;0.70;;;;;;;-8.58;77.71;99997.34;5085922;28;20032;-66
2022/12/13 06:31:24;;;;;;;0.70;0.70;;;;;;;-8.61;77.52;99992.97;5087380;28;20028;-67
2022/12/13 06:33:50;;;;;;;0.70;0.70;;;;;;;-8.59;77.57;99991.44;5087153;28;20047;-67
2022/12/13 06:36:15;;;;;;;0.80;0.80;;;;;;;-8.64;77.65;99987.75;5087199;28;20028;-65
2022/12/13 06:38:41;;;;;;;0.70;0.70;;;;;;;-8.59;77.61;99995.59;5087176;28;20040;-65
2022/12/13 06:41:15;;;;;;;0.70;0.70;;;;;;;-8.62;77.60;99991.25;5085872;28;20024;-65
2022/12/13 06:43:42;;;;;;;0.60;0.60;;;;;;;-8.64;77.61;99996.97;5086853;28;20020;-65
2022/12/13 06:46:08;;;;;;;0.70;0.70;;;;;;;-8.69;77.54;99989.13;5087261;28;20048;-65
2022/12/13 06:48:34;;;;;;;0.70;0.70;;;;;;;-8.65;77.69;99993.56;5086828;28;20059;-67
2022/12/13 06:51:01;;;;;;;0.77;0.77;;;;;;;-8.64;77.61;99989.41;5086910;28;20040;-65
2022/12/13 06:53:27;;;;;;;0.70;0.70;;;;;;;-8.71;77.64;99981.50;5086649;28;20024;-65
2022/12/13 06:55:52;;;;;;;0.70;0.70;;;;;;;-8.69;77.65;99990.75;5087042;28;20027;-66
2022/12/13 06:58:18;;;;;;;0.70;0.70;;;;;;;-8.71;77.52;99988.16;5086858;28;20356;-66
2022/12/13 07:00:43;;;;;;;0.70;0.70;;;;;;;-8.76;77.32;99984.47;5087176;28;20103;-67
2022/12/13 07:03:10;;;;;;;0.75;0.75;;;;;;;-8.77;77.38;99978.56;5085438;28;20025;-67
2022/12/13 07:05:37;;;;;;;0.80;0.80;;;;;;;-8.82;77.36;99976.53;5085029;28;20025;-65
2022/12/13 07:08:02;;;;;;;0.80;0.80;;;;;;;-8.81;77.49;99984.19;5086467;28;20056;-66
2022/12/13 07:10:28;;;;;;;0.77;0.77;;;;;;;-8.82;77.60;99977.41;5085628;28;20028;-66
2022/12/13 07:12:53;;;;;;;0.70;0.70;;;;;;;-8.90;77.52;99969.41;5086632;28;20040;-66
2022/12/13 07:15:18;;;;;;;0.70;0.70;;;;;;;-8.91;77.55;99967.63;5086690;28;20034;-66
2022/12/13 07:17:49;;;;;;;0.80;0.80;;;;;;;-8.88;77.57;99979.56;5086501;28;20032;-66
2022/12/13 07:20:14;;;;;;;0.80;0.80;;;;;;;-8.88;77.44;99982.91;5086659;28;20033;-66
2022/12/13 07:22:40;;;;;;;0.70;0.70;;;;;;;-8.91;77.63;99982.72;5086459;28;20052;-66
2022/12/13 07:25:06;;;;;;;0.80;0.80;;;;;;;-8.91;77.75;99984.41;5086192;28;20028;-64
2022/12/13 07:27:32;;;;;;;0.73;0.73;;;;;;;-8.92;77.74;99982.63;5085278;28;20052;-66
2022/12/13 07:29:58;;;;;;;0.70;0.70;;;;;;;-8.92;77.65;99983.50;5083968;28;20376;-66
2022/12/13 07:32:23;;;;;;;0.70;0.70;;;;;;;-8.90;77.64;99986.13;5085884;28;20088;-66
2022/12/13 07:34:49;;;;;;;0.70;0.70;;;;;;;-9.01;77.44;99976.25;5086293;28;20033;-66
2022/12/13 07:37:15;;;;;;;0.70;0.70;;;;;;;-9.02;77.54;99979.53;5086133;28;20044;-65
2022/12/13 07:39:40;;;;;;;0.70;0.70;;;;;;;-8.96;77.56;99991.66;5085986;28;20028;-65
2022/12/13 07:42:06;;;;;;;0.80;0.80;;;;;;;-8.98;77.60;99986.50;5086327;28;20032;-65
2022/12/13 07:44:31;;;;;;;0.70;0.70;;;;;;;-9.01;77.48;99990.47;5086014;28;20541;-65
2022/12/13 07:46:56;;;;;;;0.80;0.80;;;;;;;-9.02;77.44;99987.09;5084535;28;20028;-65
2022/12/13 07:49:22;;;;;;;0.80;0.80;;;;;;;-8.99;77.42;99993.94;5085998;28;20026;-66
2022/12/13 07:51:47;;;;;;;0.70;0.70;;;;;;;-9.01;77.26;99998.88;5085906;28;20020;-66
2022/12/13 07:54:13;;;;;;;0.80;0.80;;;;;;;-9.00;77.43;99992.22;5085797;28;20492;-65
2022/12/13 07:56:39;;;;;;;0.70;0.70;;;;;;;-8.99;77.30;100004.00;5085588;28;20028;-65
2022/12/13 07:59:04;;;;;;;0.80;0.80;;;;;;;-8.97;77.44;99997.44;5085527;28;20080;-65
2022/12/13 08:01:33;;;;;;;0.70;0.70;;;;;;;-8.98;77.78;100000.75;5085745;28;20028;-65
2022/12/13 08:04:00;;;;;;;0.75;0.75;;;;;;;-8.98;77.63;100001.59;5085511;28;20028;-65
2022/12/13 08:06:25;;;;;;;0.73;0.73;;;;;;;-8.88;77.73;99992.97;5085654;28;20040;-65
2022/12/13 08:08:57;;;;;;;0.80;0.80;;;;;;;-8.74;77.84;99996.38;5085341;28;20025;-65
2022/12/13 08:11:23;;;;;;;0.90;0.90;;;;;;;-8.56;77.61;100005.84;5085613;28;20035;-65
2022/12/13 08:13:48;;;;;;;0.75;0.75;;;;;;;-8.37;77.30;100006.97;5085331;28;20021;-65
2022/12/13 08:16:16;;;;;;;0.70;0.70;;;;;;;-8.17;76.83;100000.63;5085636;28;20035;-66
2022/12/13 08:18:46;;;;;;;0.70;0.70;;;;;;;-7.98;76.78;100000.09;5085096;28;20028;-66
2022/12/13 08:21:12;;;;;;;0.70;0.70;;;;;;;-7.79;76.47;100000.28;5085160;28;20044;-65
2022/12/13 08:23:37;;;;;;;0.70;0.70;;;;;;;-7.62;76.13;99993.75;5085238;28;20024;-65
2022/12/13 08:26:04;;;;;;;0.80;0.80;;;;;;;-7.50;75.82;99994.44;5085344;28;20140;-65
2022/12/13 08:28:31;;;;;;;0.70;0.70;;;;;;;-7.47;75.61;99983.66;5085102;28;20029;-65
2022/12/13 08:31:11;;;;;;;0.70;0.70;;;;;;;-7.31;75.68;99992.97;5085260;28;20080;-66
2022/12/13 08:33:38;;;;;;;0.70;0.70;;;;;;;-7.27;75.44;99994.91;5085194;28;20059;-66
2022/12/13 08:36:11;;;;;;;0.70;0.70;;;;;;;-7.30;75.31;99988.81;5083896;28;20036;-65
2022/12/13 08:38:37;;;;;;;0.70;0.70;;;;;;;-7.27;75.08;99986.47;5085130;28;20104;-65
2022/12/13 08:41:04;;;;;;;0.70;0.70;;;;;;;-7.17;75.33;99990.38;5085204;28;20032;-66
2022/12/13 08:43:29;;;;;;;0.70;0.70;;;;;;;-6.66;75.78;99990.63;5084990;28;20017;-66
2022/12/13 08:45:55;;;;;;;0.70;0.70;;;;;;;-6.33;75.31;99983.94;5084811;28;20035;-67
2022/12/13 08:48:20;;;;;;;0.70;0.70;;;;;;;-6.03;74.64;99983.78;5084609;28;20036;-64
2022/12/13 08:50:46;;;;;;;0.70;0.70;;;;;;;-5.65;74.37;99981.47;5083711;28;20127;-65
2022/12/13 08:53:11;;;;;;;0.70;0.70;;;;;;;-5.34;73.73;99967.81;5084763;28;20043;-66
2022/12/13 08:55:37;;;;;;;0.60;0.60;;;;;;;-4.72;72.82;99977.47;5085047;28;20078;-65
2022/12/13 08:58:05;;;;;;;0.80;0.80;;;;;;;-3.95;72.75;99976.66;5084744;28;20044;-65
2022/12/13 09:00:31;;;;;;;0.70;0.70;;;;;;;-3.39;72.57;99957.84;5084817;28;20031;-66
2022/12/13 09:02:56;;;;;;;0.65;0.65;;;;;;;-2.92;69.83;99965.63;5084669;28;20111;-66
2022/12/13 09:05:22;;;;;;;0.60;0.60;;;;;;;-2.40;67.40;99972.66;5084972;28;20028;-65
2022/12/13 09:07:47;;;;;;;0.68;0.68;;;;;;;-2.01;65.54;99966.41;5084723;28;20047;-65
2022/12/13 09:10:12;;;;;;;0.60;0.60;;;;;;;-1.43;64.79;99966.69;5084718;28;20513;-66
2022/12/13 09:12:41;;;;;;;0.60;0.60;;;;;;;-1.13;65.36;99968.50;5084744;28;20017;-66
2022/12/13 09:15:07;;;;;;;0.57;0.57;;;;;;;-1.20;61.09;99966.59;5084741;28;20024;-66
2022/12/13 09:17:33;;;;;;;0.60;0.60;;;;;;;-1.08;61.35;99980.53;5066383;28;20038;-65
2022/12/13 09:19:58;;;;;;;0.60;0.60;;;;;;;-0.84;64.26;99974.47;5083310;28;20036;-65
2022/12/13 09:22:24;;;;;;;0.60;0.60;;;;;;;-0.67;65.32;99982.66;5084481;28;20044;-65
2022/12/13 09:24:49;;;;;;;0.60;0.60;;;;;;;-0.62;64.42;99981.09;5083313;28;20033;-66
2022/12/13 09:27:14;;;;;;;0.60;0.60;;;;;;;-0.81;64.28;99980.53;5084732;28;20025;-65
2022/12/13 09:29:40;;;;;;;0.60;0.60;;;;;;;-1.43;60.75;99976.88;5084638;28;20032;-67
2022/12/13 09:32:05;;;;;;;0.60;0.60;;;;;;;-1.89;61.02;99978.72;5082902;28;20021;-66
2022/12/13 09:34:33;;;;;;;1.05;1.05;;;;;;;-2.10;64.79;99976.25;5084592;28;20024;-66
2022/12/13 09:36:59;;;;;;;0.60;0.60;;;;;;;-2.59;62.72;99982.13;5083060;28;20472;-66
2022/12/13 09:39:24;;;;;;;0.60;0.60;;;;;;;-2.53;64.05;99978.94;5084434;28;20039;-65
2022/12/13 09:41:53;;;;;;;0.60;0.60;;;;;;;-1.99;63.69;99977.50;5084424;28;20027;-64
2022/12/13 09:44:25;;;;;;;0.70;0.70;;;;;;;-1.08;61.47;99973.75;5084352;28;20492;-65
2022/12/13 09:46:52;;;;;;;0.70;0.70;;;;;;;0.24;60.90;99958.84;5084438;28;20036;-65
2022/12/13 09:49:30;;;;;;;0.50;0.50;;;;;;;1.57;62.25;99949.19;5084335;28;20051;-66
2022/12/13 09:51:59;;;;;;;0.50;0.50;;;;;;;2.16;56.11;99953.72;5084442;28;20102;-65
2022/12/13 09:54:25;;;;;;;0.50;0.50;;;;;;;2.81;51.34;99943.75;5084261;28;20027;-65
2022/12/13 09:56:52;;;;;;;0.50;0.50;;;;;;;3.17;49.93;99947.69;5084369;28;20044;-66
2022/12/13 09:59:25;;;;;;;0.50;0.50;;;;;;;3.70;47.03;99944.97;5085937;28;20025;-66
2022/12/13 10:01:50;;;;;;;0.50;0.50;;;;;;;4.48;49.19;99932.94;5087776;28;20024;-66
2022/12/13 10:04:17;;;;;;;0.50;0.50;;;;;;;5.27;55.29;99932.63;5087094;28;20044;-65
2022/12/13 10:06:42;;;;;;;0.57;0.57;;;;;;;5.81;56.18;99938.91;5087620;28;20028;-65
2022/12/13 10:09:11;;;;;;;0.50;0.50;;;;;;;5.76;51.87;99935.44;5087488;28;20083;-65
2022/12/13 10:11:46;;;;;;;0.50;0.50;;;;;;;5.41;45.28;99921.56;5087513;28;20025;-65
2022/12/13 10:14:18;;;;;;;0.43;0.43;;;;;;;4.92;46.18;99926.41;5087514;28;20038;-65
2022/12/13 10:16:52;;;;;;;0.60;0.60;;;;;;;4.64;46.25;99918.50;5087884;28;20024;-66
2022/12/13 10:19:38;;;;;;;0.50;0.50;;;;;;;4.03;45.74;99917.94;5087375;28;20025;-65
2022/12/13 10:22:08;;;;;;;0.50;0.50;;;;;;;3.51;49.52;99918.19;5087158;28;20040;-66
2022/12/13 10:24:52;;;;;;;0.50;0.50;;;;;;;2.80;50.91;99909.53;5087194;28;20499;-66
2022/12/13 10:27:25;;;;;;;0.50;0.50;;;;;;;2.01;50.45;99910.78;5087577;28;20036;-65
2022/12/13 10:29:58;;;;;;;0.50;0.50;;;;;;;1.83;53.64;99904.47;5087337;28;20039;-66
2022/12/13 10:32:24;;;;;;;0.50;0.50;;;;;;;1.19;52.38;99855.47;5087153;28;20051;-66
2022/12/13 10:34:49;;;;;;;0.90;0.90;;;;;;;1.07;53.44;99903.78;5087322;28;20016;-65
2022/12/13 10:37:27;;;;;;;0.50;0.50;;;;;;;0.55;55.77;99901.72;5085865;28;20480;-65
2022/12/13 10:39:53;;;;;;;0.50;0.50;;;;;;;0.15;56.16;99887.13;5087100;28;20049;-65
2022/12/13 10:42:20;;;;;;;0.50;0.50;;;;;;;-0.54;55.22;99895.50;5087207;28;20036;-66
2022/12/13 10:44:47;;;;;;;0.85;0.85;;;;;;;-0.71;58.09;99900.13;5086882;28;20099;-66
2022/12/13 10:47:19;;;;;;;0.50;0.50;;;;;;;-0.91;59.50;99899.53;5086915;28;20032;-66
2022/12/13 10:49:53;;;;;;;0.60;0.60;;;;;;;-1.31;59.21;99891.50;5087005;28;20028;-66
2022/12/13 10:52:45;;;;;;;0.70;0.70;;;;;;;-1.41;61.08;99885.25;5087291;28;20021;-66
2022/12/13 10:55:31;;;;;;;0.80;0.80;;;;;;;-1.62;58.45;99886.28;5086863;28;20043;-65
2022/12/13 10:58:00;;;;;;;0.60;0.60;;;;;;;-1.97;58.96;99883.41;5086954;28;20045;-66
2022/12/13 11:00:43;;;;;;;0.60;0.60;;;;;;;-2.10;61.31;99892.31;5086954;28;20078;-65
2022/12/13 11:03:31;;;;;;;0.60;0.60;;;;;;;-2.13;62.62;99886.31;5085408;28;20090;-65
2022/12/13 11:06:16;;;;;;;0.60;0.60;;;;;;;-2.16;63.10;99886.22;5086569;28;20063;-65
2022/12/13 11:08:42;;;;;;;0.60;0.60;;;;;;;-2.15;62.37;99890.47;5086832;28;20021;-66
2022/12/13 11:11:09;;;;;;;0.60;0.60;;;;;;;-1.95;62.91;99879.25;5086361;28;20074;-66
2022/12/13 11:13:39;;;;;;;0.60;0.60;;;;;;;-1.62;62.04;99888.84;5086853;28;20100;-65
2022/12/13 11:16:19;;;;;;;0.60;0.60;;;;;;;-1.01;59.04;99886.47;5087062;28;20368;-65
2022/12/13 11:18:52;;;;;;;0.70;0.70;;;;;;;-0.36;57.86;99876.44;5086571;28;20025;-65
2022/12/13 11:21:25;;;;;;;0.60;0.60;;;;;;;0.34;56.24;99864.59;5086510;28;20063;-65
2022/12/13 11:23:52;;;;;;;0.60;0.60;;;;;;;0.81;55.04;99856.34;5086260;28;20101;-67
2022/12/13 11:26:21;;;;;;;0.70;0.70;;;;;;;0.83;53.22;99854.69;5084716;28;20082;-66
2022/12/13 11:29:16;;;;;;;0.60;0.60;;;;;;;-0.01;51.66;99851.00;5085002;28;20020;-66
2022/12/13 11:32:09;;;;;;;0.70;0.70;;;;;;;-1.05;55.61;99861.75;5085584;28;20084;-66
2022/12/13 11:35:13;;;;;;;0.60;0.60;;;;;;;-1.59;60.65;99860.06;5086243;28;20361;-66
2022/12/13 11:37:53;;;;;;;0.70;0.70;;;;;;;-1.86;62.39;99866.84;5086083;28;20043;-65
2022/12/13 11:40:21;;;;;;;0.68;0.68;;;;;;;-1.95;63.27;99874.19;5085962;28;20021;-64